createdAt,value
2022-08-20T00:00:06.306Z,99870.59
2022-08-20T00:00:38.287Z,99872.56
2022-08-20T00:01:09.731Z,99876.59
2022-08-20T00:01:41.112Z,99870.56
2022-08-20T00:02:12.720Z,99865.72
2022-08-20T00:02:49.183Z,99876.63
2022-08-20T00:03:23.310Z,99871.09
2022-08-20T00:03:57.085Z,99866.38
2022-08-20T00:04:33.068Z,99866.88
2022-08-20T00:05:04.570Z,99861.84
2022-08-20T00:05:40.116Z,99863.88
2022-08-20T00:06:12.996Z,99869.56
2022-08-20T00:06:44.334Z,99870.75
2022-08-20T00:07:15.712Z,99869.56
2022-08-20T00:07:47.093Z,99872.56
2022-08-20T00:08:18.713Z,99872.56
2022-08-20T00:08:50.108Z,99877.94
2022-08-20T00:09:21.520Z,99876.59
2022-08-20T00:09:52.853Z,99873.22
2022-08-20T00:10:24.376Z,99873.75
2022-08-20T00:10:55.921Z,99873.59
2022-08-20T00:11:27.452Z,99875.91
2022-08-20T00:12:00.454Z,99879.59
2022-08-20T00:12:31.877Z,99878.94
2022-08-20T00:13:03.829Z,99880.28
2022-08-20T00:13:37.815Z,99876.28
2022-08-20T00:14:09.398Z,99878.97
2022-08-20T00:14:40.903Z,99874.59
2022-08-20T00:15:14.747Z,99876.94
2022-08-20T00:15:46.427Z,99874.09
2022-08-20T00:16:18.249Z,99877.94
2022-08-20T00:16:49.631Z,99881.81
2022-08-20T00:17:21.003Z,99879.47
2022-08-20T00:17:52.392Z,99872.41
2022-08-20T00:18:23.772Z,99876.94
2022-08-20T00:18:55.222Z,99877.94
2022-08-20T00:19:27.094Z,99883.63
2022-08-20T00:19:58.585Z,99874.44
2022-08-20T00:20:31.241Z,99885.47
2022-08-20T00:21:03.588Z,99874.09
2022-08-20T00:21:35.173Z,99884.47
2022-08-20T00:22:06.602Z,99879.28
2022-08-20T00:22:38.088Z,99876.28
2022-08-20T00:23:10.574Z,99886.47
2022-08-20T00:23:43.138Z,99881.28
2022-08-20T00:24:14.529Z,99882.47
2022-08-20T00:24:45.928Z,99878.59
2022-08-20T00:25:17.346Z,99880.44
2022-08-20T00:25:48.709Z,99877.44
2022-08-20T00:26:20.232Z,99873.94
2022-08-20T00:26:52.797Z,99873.75
2022-08-20T00:27:24.326Z,99879.78
2022-08-20T00:27:56.306Z,99876.09
2022-08-20T00:28:27.771Z,99874.25
2022-08-20T00:28:59.148Z,99874.41
2022-08-20T00:29:30.515Z,99879.78
2022-08-20T00:30:02.200Z,99887.66
2022-08-20T00:30:33.947Z,99888.97
2022-08-20T00:31:06.004Z,99885.47
2022-08-20T00:31:37.532Z,99882.13
2022-08-20T00:32:09.540Z,99875.91
2022-08-20T00:32:47.880Z,99877.59
2022-08-20T00:33:19.990Z,99879.28
2022-08-20T00:33:51.450Z,99881.97
2022-08-20T00:34:22.851Z,99887.97
2022-08-20T00:34:54.205Z,99884.31
2022-08-20T00:35:26.855Z,99885.81
2022-08-20T00:35:58.209Z,99880.59
2022-08-20T00:36:32.609Z,99881.78
2022-08-20T00:37:04.528Z,99877.75
2022-08-20T00:37:35.953Z,99883.28
2022-08-20T00:38:07.279Z,99891.31
2022-08-20T00:38:38.969Z,99880.59
2022-08-20T00:39:10.363Z,99878.59
2022-08-20T00:39:41.818Z,99883.94
2022-08-20T00:40:22.876Z,99883.28
2022-08-20T00:40:55.484Z,99885.81
2022-08-20T00:41:27.024Z,99878.94
2022-08-20T00:41:58.455Z,99879.78
2022-08-20T00:42:29.812Z,99879.63
2022-08-20T00:43:01.298Z,99883.63
2022-08-20T00:43:34.397Z,99881.97
2022-08-20T00:44:13.084Z,99879.94
2022-08-20T00:44:45.699Z,99873.06
2022-08-20T00:45:17.192Z,99873.75
2022-08-20T00:45:48.580Z,99882.94
2022-08-20T00:46:28.120Z,99876.75
2022-08-20T00:47:03.574Z,99885.47
2022-08-20T00:47:34.970Z,99882.78
2022-08-20T00:48:06.407Z,99880.94
2022-08-20T00:48:38.393Z,99881.78
2022-08-20T00:49:11.786Z,99887.81
2022-08-20T00:49:43.156Z,99887.66
2022-08-20T00:50:15.775Z,99882.28
2022-08-20T00:50:48.732Z,99895.53
2022-08-20T00:51:29.989Z,99885.97
2022-08-20T00:52:14.627Z,99881.47
2022-08-20T00:52:49.783Z,99882.28
2022-08-20T00:53:21.602Z,99884.97
2022-08-20T00:53:56.270Z,99887.50
2022-08-20T00:54:46.826Z,99880.28
2022-08-20T00:55:18.313Z,99886.63
2022-08-20T00:55:49.755Z,99895.53
2022-08-20T00:56:21.170Z,99879.44
2022-08-20T00:56:54.846Z,99883.94
2022-08-20T00:57:29.150Z,99883.13
2022-08-20T00:58:20.479Z,99875.25
2022-08-20T00:58:51.835Z,99884.81
2022-08-20T00:59:28.676Z,99887.66
2022-08-20T01:00:00.165Z,99883.28
2022-08-20T01:00:32.707Z,99883.94
2022-08-20T01:01:04.201Z,99880.59
2022-08-20T01:01:54.772Z,99877.09
2022-08-20T01:02:27.292Z,99884.31
2022-08-20T01:02:58.762Z,99879.13
2022-08-20T01:03:30.140Z,99880.09
2022-08-20T01:04:01.547Z,99879.94
2022-08-20T01:04:33.480Z,99882.63
2022-08-20T01:05:05.460Z,99879.94
2022-08-20T01:05:37.679Z,99880.94
2022-08-20T01:06:09.095Z,99887.81
2022-08-20T01:06:40.493Z,99881.63
2022-08-20T01:07:11.821Z,99891.50
2022-08-20T01:07:43.191Z,99880.09
2022-08-20T01:08:15.043Z,99882.94
2022-08-20T01:08:46.552Z,99878.41
2022-08-20T01:09:17.898Z,99881.97
2022-08-20T01:10:13.719Z,99882.78
2022-08-20T01:10:50.699Z,99889.13
2022-08-20T01:11:22.064Z,99884.97
2022-08-20T01:11:53.864Z,99890.31
2022-08-20T01:12:25.321Z,99886.63
2022-08-20T01:12:59.398Z,99889.13
2022-08-20T01:13:31.053Z,99891.97
2022-08-20T01:14:03.389Z,99889.28
2022-08-20T01:14:34.907Z,99891.16
2022-08-20T01:15:06.542Z,99893.81
2022-08-20T01:15:42.944Z,99897.34
2022-08-20T01:16:25.071Z,99895.53
2022-08-20T01:17:00.426Z,99903.72
2022-08-20T01:17:32.842Z,99900.00
2022-08-20T01:18:04.325Z,99897.69
2022-08-20T01:18:35.660Z,99898.34
2022-08-20T01:19:07.243Z,99901.38
2022-08-20T01:20:04.407Z,99898.69
2022-08-20T01:20:39.818Z,99904.22
2022-08-20T01:21:11.207Z,99899.69
2022-08-20T01:21:45.794Z,99899.69
2022-08-20T01:22:28.877Z,99899.84
2022-08-20T01:23:15.578Z,99908.75
2022-08-20T01:24:05.499Z,99899.34
2022-08-20T01:24:37.084Z,99901.38
2022-08-20T01:25:12.740Z,99906.72
2022-08-20T01:25:48.788Z,99907.72
2022-08-20T01:26:24.764Z,99900.69
2022-08-20T01:26:56.110Z,99905.34
2022-08-20T01:27:27.513Z,99904.66
2022-08-20T01:28:02.360Z,99898.47
2022-08-20T01:28:35.360Z,99909.50
2022-08-20T01:29:06.785Z,99907.50
2022-08-20T01:29:38.627Z,99906.00
2022-08-20T01:30:10.165Z,99909.34
2022-08-20T01:30:41.543Z,99907.34
2022-08-20T01:31:19.957Z,99904.00
2022-08-20T01:31:51.534Z,99907.50
2022-08-20T01:32:22.870Z,99907.34
2022-08-20T01:32:54.368Z,99912.03
2022-08-20T01:33:25.806Z,99909.50
2022-08-20T01:33:57.766Z,99912.03
2022-08-20T01:34:29.289Z,99910.50
2022-08-20T01:35:00.672Z,99909.34
2022-08-20T01:35:34.915Z,99910.50
2022-08-20T01:36:06.482Z,99902.63
2022-08-20T01:36:46.140Z,99905.16
2022-08-20T01:37:17.935Z,99910.31
2022-08-20T01:37:49.432Z,99900.28
2022-08-20T01:38:20.857Z,99901.81
2022-08-20T01:38:54.225Z,99907.81
2022-08-20T01:39:27.319Z,99898.63
2022-08-20T01:39:58.750Z,99905.94
2022-08-20T01:40:48.832Z,99902.44
2022-08-20T01:41:28.445Z,99911.16
2022-08-20T01:42:20.683Z,99899.59
2022-08-20T01:42:59.003Z,99898.44
2022-08-20T01:43:31.278Z,99902.94
2022-08-20T01:44:09.199Z,99897.28
2022-08-20T01:44:48.144Z,99901.81
2022-08-20T01:45:20.753Z,99902.63
2022-08-20T01:45:58.217Z,99901.63
2022-08-20T01:46:31.751Z,99904.31
2022-08-20T01:47:27.331Z,99893.59
2022-08-20T01:47:59.359Z,99903.31
2022-08-20T01:48:30.953Z,99901.47
2022-08-20T01:49:07.041Z,99905.16
2022-08-20T01:49:46.201Z,99899.63
2022-08-20T01:50:17.923Z,99903.50
2022-08-20T01:50:53.888Z,99906.00
2022-08-20T01:51:27.100Z,99904.31
2022-08-20T01:51:59.437Z,99907.16
2022-08-20T01:52:38.988Z,99908.00
2022-08-20T01:53:21.521Z,99905.31
2022-08-20T01:53:53.341Z,99902.47
2022-08-20T01:54:24.815Z,99892.22
2022-08-20T01:54:56.392Z,99899.13
2022-08-20T01:55:28.132Z,99904.63
2022-08-20T01:56:00.557Z,99895.59
2022-08-20T01:56:32.005Z,99897.75
2022-08-20T01:57:04.772Z,99895.94
2022-08-20T01:57:36.522Z,99899.44
2022-08-20T01:58:07.882Z,99898.94
2022-08-20T01:58:39.587Z,99902.13
2022-08-20T01:59:10.927Z,99903.97
2022-08-20T01:59:42.397Z,99913.00
2022-08-20T02:00:20.037Z,99902.94
2022-08-20T02:00:51.770Z,99911.31
2022-08-20T02:01:24.613Z,99901.28
2022-08-20T02:01:56.127Z,99904.63
2022-08-20T02:02:27.675Z,99901.13
2022-08-20T02:02:59.059Z,99906.34
2022-08-20T02:03:34.794Z,99902.63
2022-08-20T02:04:09.448Z,99905.31
2022-08-20T02:04:46.840Z,99904.47
2022-08-20T02:05:18.498Z,99908.84
2022-08-20T02:05:49.856Z,99912.50
2022-08-20T02:06:21.541Z,99909.69
2022-08-20T02:06:56.109Z,99908.00
2022-08-20T02:07:28.849Z,99906.34
2022-08-20T02:08:00.354Z,99912.50
2022-08-20T02:08:31.870Z,99906.84
2022-08-20T02:09:03.916Z,99909.50
2022-08-20T02:09:36.016Z,99907.66
2022-08-20T02:10:08.145Z,99908.69
2022-08-20T02:10:39.527Z,99908.53
2022-08-20T02:11:10.917Z,99908.84
2022-08-20T02:11:42.273Z,99908.84
2022-08-20T02:12:13.715Z,99901.63
2022-08-20T02:12:45.105Z,99914.72
2022-08-20T02:13:16.478Z,99903.16
2022-08-20T02:13:47.877Z,99905.84
2022-08-20T02:14:19.341Z,99908.69
2022-08-20T02:14:51.249Z,99906.00
2022-08-20T02:15:34.979Z,99907.66
2022-08-20T02:16:08.950Z,99906.00
2022-08-20T02:16:41.831Z,99904.31
2022-08-20T02:17:13.664Z,99908.84
2022-08-20T02:17:45.065Z,99908.00
2022-08-20T02:18:16.405Z,99899.78
2022-08-20T02:18:48.529Z,99908.16
2022-08-20T02:19:22.007Z,99896.75
2022-08-20T02:20:12.223Z,99907.16
2022-08-20T02:20:43.616Z,99910.16
2022-08-20T02:21:15.184Z,99914.69
2022-08-20T02:21:51.303Z,99913.66
2022-08-20T02:22:31.937Z,99905.47
2022-08-20T02:23:03.430Z,99900.28
2022-08-20T02:23:34.767Z,99909.16
2022-08-20T02:24:06.457Z,99911.69
2022-08-20T02:24:40.259Z,99910.16
2022-08-20T02:25:11.643Z,99902.28
2022-08-20T02:25:43.788Z,99904.63
2022-08-20T02:26:15.287Z,99905.47
2022-08-20T02:26:47.031Z,99902.94
2022-08-20T02:27:18.463Z,99911.00
2022-08-20T02:27:50.201Z,99918.19
2022-08-20T02:28:21.637Z,99910.31
2022-08-20T02:28:53.024Z,99912.84
2022-08-20T02:29:24.423Z,99902.28
2022-08-20T02:29:55.845Z,99907.47
2022-08-20T02:30:31.673Z,99914.53
2022-08-20T02:31:03.030Z,99912.84
2022-08-20T02:31:35.130Z,99921.88
2022-08-20T02:32:32.124Z,99921.88
2022-08-20T02:32:58.180Z,99920.03
2022-08-20T02:33:29.607Z,99915.34
2022-08-20T02:34:22.578Z,99918.03
2022-08-20T02:34:52.363Z,99920.72
2022-08-20T02:35:23.987Z,99920.03
2022-08-20T02:35:55.392Z,99919.03
2022-08-20T02:36:26.853Z,99920.03
2022-08-20T02:36:58.692Z,99921.03
2022-08-20T02:37:30.116Z,99918.53
2022-08-20T02:38:01.603Z,99918.53
2022-08-20T02:38:32.970Z,99915.69
2022-08-20T02:39:07.857Z,99923.72
2022-08-20T02:39:39.320Z,99920.03
2022-08-20T02:40:12.191Z,99922.03
2022-08-20T02:40:43.976Z,99918.53
2022-08-20T02:41:15.335Z,99924.53
2022-08-20T02:41:46.891Z,99917.38
2022-08-20T02:42:18.309Z,99913.16
2022-08-20T02:42:49.876Z,99922.03
2022-08-20T02:43:21.326Z,99918.34
2022-08-20T02:43:52.652Z,99914.84
2022-08-20T02:44:24.040Z,99923.56
2022-08-20T02:44:55.467Z,99917.38
2022-08-20T02:45:26.937Z,99918.53
2022-08-20T02:45:58.723Z,99924.91
2022-08-20T02:46:30.197Z,99915.84
2022-08-20T02:47:02.513Z,99926.22
2022-08-20T02:47:33.939Z,99922.03
2022-08-20T02:48:05.387Z,99921.03
2022-08-20T02:48:36.733Z,99925.41
2022-08-20T02:49:08.201Z,99922.72
2022-08-20T02:49:39.735Z,99921.69
2022-08-20T02:50:11.601Z,99923.56
2022-08-20T02:50:43.069Z,99923.41
2022-08-20T02:51:14.475Z,99926.91
2022-08-20T02:51:45.924Z,99918.88
2022-08-20T02:52:17.274Z,99920.03
2022-08-20T02:52:51.632Z,99923.72
2022-08-20T02:53:24.032Z,99922.72
2022-08-20T02:53:55.410Z,99920.03
2022-08-20T02:54:26.847Z,99924.38
2022-08-20T02:54:58.243Z,99921.69
2022-08-20T02:55:29.600Z,99917.03
2022-08-20T02:56:00.950Z,99918.88
2022-08-20T02:56:32.362Z,99919.72
2022-08-20T02:57:03.851Z,99917.38
2022-08-20T02:57:35.226Z,99914.84
2022-08-20T02:58:06.592Z,99919.03
2022-08-20T02:58:38.191Z,99930.59
2022-08-20T02:59:09.559Z,99923.56
2022-08-20T02:59:43.908Z,99923.72
2022-08-20T03:00:16.731Z,99922.56
2022-08-20T03:00:48.325Z,99920.03
2022-08-20T03:01:19.896Z,99921.03
2022-08-20T03:01:59.282Z,99922.72
2022-08-20T03:02:32.510Z,99919.03
2022-08-20T03:03:03.902Z,99921.69
2022-08-20T03:03:35.395Z,99917.38
2022-08-20T03:04:06.840Z,99927.22
2022-08-20T03:04:38.201Z,99919.19
2022-08-20T03:05:09.773Z,99921.03
2022-08-20T03:05:41.740Z,99920.38
2022-08-20T03:06:13.242Z,99925.56
2022-08-20T03:06:44.590Z,99919.19
2022-08-20T03:07:16.126Z,99917.19
2022-08-20T03:07:48.525Z,99924.72
2022-08-20T03:08:19.857Z,99914.34
2022-08-20T03:08:51.282Z,99911.66
2022-08-20T03:09:22.833Z,99912.66
2022-08-20T03:09:54.286Z,99918.84
2022-08-20T03:10:30.866Z,99917.84
2022-08-20T03:11:02.185Z,99920.53
2022-08-20T03:11:33.583Z,99917.69
2022-08-20T03:12:07.065Z,99906.97
2022-08-20T03:12:38.634Z,99918.00
2022-08-20T03:13:10.247Z,99911.66
2022-08-20T03:13:41.646Z,99909.97
2022-08-20T03:14:13.000Z,99907.28
2022-08-20T03:14:44.333Z,99911.50
2022-08-20T03:15:17.746Z,99919.34
2022-08-20T03:15:57.931Z,99912.31
2022-08-20T03:16:29.929Z,99907.81
2022-08-20T03:17:01.328Z,99910.97
2022-08-20T03:17:32.716Z,99907.97
2022-08-20T03:18:04.182Z,99907.13
2022-08-20T03:18:37.960Z,99908.97
2022-08-20T03:19:09.319Z,99904.63
2022-08-20T03:19:40.681Z,99897.41
2022-08-20T03:20:12.142Z,99896.41
2022-08-20T03:20:43.520Z,99899.25
2022-08-20T03:21:17.436Z,99900.94
2022-08-20T03:21:48.945Z,99899.09
2022-08-20T03:22:20.466Z,99904.28
2022-08-20T03:22:52.059Z,99894.56
2022-08-20T03:23:23.594Z,99894.88
2022-08-20T03:23:54.956Z,99897.25
2022-08-20T03:24:26.313Z,99899.25
2022-08-20T03:24:57.668Z,99902.75
2022-08-20T03:25:29.004Z,99897.41
2022-08-20T03:26:00.393Z,99900.41
2022-08-20T03:26:31.956Z,99891.22
2022-08-20T03:27:03.374Z,99897.41
2022-08-20T03:27:36.380Z,99895.91
2022-08-20T03:28:08.053Z,99898.25
2022-08-20T03:28:39.714Z,99894.56
2022-08-20T03:29:11.239Z,99893.75
2022-08-20T03:29:42.665Z,99899.25
2022-08-20T03:30:14.197Z,99889.38
2022-08-20T03:30:45.517Z,99892.91
2022-08-20T03:31:16.939Z,99891.53
2022-08-20T03:31:48.267Z,99893.06
2022-08-20T03:32:19.669Z,99887.56
2022-08-20T03:32:51.109Z,99899.25
2022-08-20T03:33:22.542Z,99893.22
2022-08-20T03:33:53.988Z,99901.09
2022-08-20T03:34:25.320Z,99891.22
2022-08-20T03:34:56.692Z,99894.88
2022-08-20T03:35:28.534Z,99893.91
2022-08-20T03:36:00.059Z,99890.22
2022-08-20T03:36:31.578Z,99901.78
2022-08-20T03:37:02.918Z,99891.22
2022-08-20T03:37:34.471Z,99884.88
2022-08-20T03:38:07.192Z,99887.56
2022-08-20T03:38:39.799Z,99892.91
2022-08-20T03:39:11.199Z,99891.22
2022-08-20T03:39:42.641Z,99892.91
2022-08-20T03:40:15.685Z,99891.22
2022-08-20T03:40:47.730Z,99900.09
2022-08-20T03:41:19.159Z,99890.22
2022-08-20T03:41:50.514Z,99900.09
2022-08-20T03:42:21.895Z,99901.09
2022-08-20T03:42:53.356Z,99892.06
2022-08-20T03:43:24.739Z,99902.09
2022-08-20T03:43:56.161Z,99891.22
2022-08-20T03:44:27.511Z,99887.56
2022-08-20T03:44:59.446Z,99894.56
2022-08-20T03:45:30.913Z,99901.94
2022-08-20T03:46:02.274Z,99896.56
2022-08-20T03:46:34.088Z,99896.41
2022-08-20T03:47:05.786Z,99894.88
2022-08-20T03:47:37.105Z,99901.94
2022-08-20T03:48:08.625Z,99893.75
2022-08-20T03:48:39.956Z,99900.09
2022-08-20T03:49:11.343Z,99898.25
2022-08-20T03:49:42.841Z,99897.25
2022-08-20T03:50:14.874Z,99894.56
2022-08-20T03:50:54.619Z,99897.25
2022-08-20T03:51:25.987Z,99894.56
2022-08-20T03:51:57.927Z,99893.75
2022-08-20T03:52:29.833Z,99903.63
2022-08-20T03:53:01.247Z,99901.94
2022-08-20T03:53:32.607Z,99899.25
2022-08-20T03:54:04.005Z,99898.59
2022-08-20T03:54:35.533Z,99903.94
2022-08-20T03:55:07.212Z,99902.94
2022-08-20T03:55:38.621Z,99899.41
2022-08-20T03:56:09.926Z,99904.78
2022-08-20T03:56:41.350Z,99906.47
2022-08-20T03:57:13.166Z,99904.78
2022-08-20T03:57:48.101Z,99902.56
2022-08-20T03:58:19.582Z,99905.94
2022-08-20T03:58:50.985Z,99909.97
2022-08-20T03:59:22.346Z,99907.47
2022-08-20T03:59:58.043Z,99906.63
2022-08-20T04:00:34.228Z,99911.81
2022-08-20T04:01:05.999Z,99903.63
2022-08-20T04:01:45.548Z,99908.13
2022-08-20T04:02:17.942Z,99904.28
2022-08-20T04:02:49.308Z,99904.78
2022-08-20T04:03:20.766Z,99902.25
2022-08-20T04:03:55.079Z,99900.72
2022-08-20T04:04:26.703Z,99903.41
2022-08-20T04:04:58.082Z,99905.25
2022-08-20T04:05:29.959Z,99904.59
2022-08-20T04:06:01.394Z,99905.41
2022-08-20T04:06:32.821Z,99899.75
2022-08-20T04:07:14.272Z,99904.94
2022-08-20T04:07:45.634Z,99903.94
2022-08-20T04:08:21.026Z,99898.59
2022-08-20T04:08:52.378Z,99906.47
2022-08-20T04:09:23.896Z,99901.28
2022-08-20T04:09:55.552Z,99906.47
2022-08-20T04:10:26.990Z,99902.94
2022-08-20T04:10:58.530Z,99899.41
2022-08-20T04:11:29.932Z,99903.09
2022-08-20T04:12:01.312Z,99910.97
2022-08-20T04:12:32.685Z,99899.41
2022-08-20T04:13:06.476Z,99901.28
2022-08-20T04:13:43.421Z,99904.63
2022-08-20T04:14:18.481Z,99904.78
2022-08-20T04:14:51.193Z,99905.59
2022-08-20T04:15:22.531Z,99902.94
2022-08-20T04:15:54.137Z,99910.13
2022-08-20T04:16:25.526Z,99911.81
2022-08-20T04:16:56.839Z,99909.31
2022-08-20T04:17:28.227Z,99906.63
2022-08-20T04:17:59.637Z,99910.13
2022-08-20T04:18:31.034Z,99908.59
2022-08-20T04:19:02.881Z,99906.78
2022-08-20T04:19:34.399Z,99908.44
2022-08-20T04:20:06.059Z,99910.28
2022-08-20T04:20:38.276Z,99912.97
2022-08-20T04:21:09.615Z,99909.47
2022-08-20T04:21:41.030Z,99914.81
2022-08-20T04:22:12.408Z,99902.25
2022-08-20T04:22:43.780Z,99908.59
2022-08-20T04:23:30.332Z,99909.31
2022-08-20T04:24:02.168Z,99908.44
2022-08-20T04:24:34.008Z,99911.13
2022-08-20T04:25:05.503Z,99915.66
2022-08-20T04:25:39.347Z,99910.63
2022-08-20T04:26:14.606Z,99907.78
2022-08-20T04:26:46.007Z,99911.28
2022-08-20T04:27:17.362Z,99907.63
2022-08-20T04:27:48.739Z,99912.66
2022-08-20T04:28:20.594Z,99916.31
2022-08-20T04:28:51.966Z,99914.66
2022-08-20T04:29:23.382Z,99910.97
2022-08-20T04:29:56.414Z,99912.81
2022-08-20T04:30:27.919Z,99915.66
2022-08-20T04:31:00.023Z,99918.16
2022-08-20T04:31:31.426Z,99911.97
2022-08-20T04:32:05.824Z,99915.50
2022-08-20T04:32:38.019Z,99911.13
2022-08-20T04:33:09.853Z,99912.97
2022-08-20T04:33:41.200Z,99919.31
2022-08-20T04:34:12.558Z,99912.97
2022-08-20T04:34:43.988Z,99919.16
2022-08-20T04:35:18.791Z,99921.00
2022-08-20T04:35:50.126Z,99918.31
2022-08-20T04:36:21.466Z,99913.97
2022-08-20T04:36:52.822Z,99922.84
2022-08-20T04:37:24.183Z,99924.34
2022-08-20T04:38:02.323Z,99924.69
2022-08-20T04:38:50.428Z,99925.53
2022-08-20T04:39:22.394Z,99932.41
2022-08-20T04:39:53.870Z,99929.72
2022-08-20T04:40:25.389Z,99924.19
2022-08-20T04:40:56.759Z,99933.25
2022-08-20T04:41:28.131Z,99934.25
2022-08-20T04:41:59.539Z,99935.38
2022-08-20T04:42:30.930Z,99934.41
2022-08-20T04:43:02.726Z,99941.44
2022-08-20T04:43:34.667Z,99931.72
2022-08-20T04:44:06.068Z,99934.56
2022-08-20T04:44:37.495Z,99938.06
2022-08-20T04:45:09.497Z,99940.75
2022-08-20T04:45:40.857Z,99940.06
2022-08-20T04:46:12.211Z,99935.75
2022-08-20T04:46:43.570Z,99937.56
2022-08-20T04:47:18.867Z,99943.22
2022-08-20T04:47:56.933Z,99938.75
2022-08-20T04:48:28.666Z,99935.34
2022-08-20T04:49:00.578Z,99937.22
2022-08-20T04:49:32.027Z,99936.22
2022-08-20T04:50:03.566Z,99945.72
2022-08-20T04:50:35.479Z,99935.00
2022-08-20T04:51:07.337Z,99938.34
2022-08-20T04:51:39.782Z,99942.06
2022-08-20T04:52:11.201Z,99943.38
2022-08-20T04:52:42.623Z,99945.09
2022-08-20T04:53:14.478Z,99946.78
2022-08-20T04:53:51.653Z,99951.13
2022-08-20T04:54:23.794Z,99950.94
2022-08-20T04:54:55.165Z,99953.78
2022-08-20T04:55:26.550Z,99953.63
2022-08-20T04:55:58.608Z,99954.66
2022-08-20T04:56:31.241Z,99960.69
2022-08-20T04:57:02.620Z,99959.31
2022-08-20T04:57:33.995Z,99959.16
2022-08-20T04:58:05.846Z,99963.50
2022-08-20T04:58:38.144Z,99959.16
2022-08-20T04:59:09.526Z,99961.81
2022-08-20T04:59:40.900Z,99961.81
2022-08-20T05:00:14.682Z,99959.84
2022-08-20T05:00:49.425Z,99958.16
2022-08-20T05:01:20.887Z,99959.16
2022-08-20T05:01:52.237Z,99961.81
2022-08-20T05:02:23.602Z,99958.16
2022-08-20T05:02:54.982Z,99966.19
2022-08-20T05:03:26.566Z,99960.00
2022-08-20T05:03:57.975Z,99971.56
2022-08-20T05:04:29.364Z,99965.53
2022-08-20T05:05:00.726Z,99970.88
2022-08-20T05:05:32.095Z,99971.56
2022-08-20T05:06:03.860Z,99968.88
2022-08-20T05:06:35.217Z,99967.88
2022-08-20T05:07:06.654Z,99967.03
2022-08-20T05:07:38.969Z,99963.50
2022-08-20T05:08:19.889Z,99968.88
2022-08-20T05:08:52.260Z,99965.38
2022-08-20T05:09:23.620Z,99967.03
2022-08-20T05:09:54.983Z,99968.03
2022-08-20T05:10:26.327Z,99969.69
2022-08-20T05:11:16.288Z,99965.22
2022-08-20T05:11:49.147Z,99970.88
2022-08-20T05:12:20.585Z,99960.84
2022-08-20T05:12:56.536Z,99966.88
2022-08-20T05:13:28.638Z,99971.38
2022-08-20T05:14:00.027Z,99966.88
2022-08-20T05:14:31.385Z,99968.72
2022-08-20T05:15:03.006Z,99967.88
2022-08-20T05:15:34.546Z,99970.56
2022-08-20T05:16:06.025Z,99970.56
2022-08-20T05:16:38.098Z,99965.53
2022-08-20T05:17:09.596Z,99971.56
2022-08-20T05:17:41.112Z,99974.22
2022-08-20T05:18:12.536Z,99972.38
2022-08-20T05:18:43.924Z,99971.56
2022-08-20T05:19:15.453Z,99973.41
2022-08-20T05:19:46.807Z,99975.91
2022-08-20T05:20:18.205Z,99972.53
2022-08-20T05:20:49.571Z,99970.38
2022-08-20T05:21:20.970Z,99982.09
2022-08-20T05:21:52.381Z,99973.25
2022-08-20T05:22:23.700Z,99977.91
2022-08-20T05:22:55.028Z,99975.06
2022-08-20T05:23:26.427Z,99975.91
2022-08-20T05:23:57.820Z,99979.59
2022-08-20T05:24:29.401Z,99983.09
2022-08-20T05:25:00.956Z,99978.59
2022-08-20T05:25:32.294Z,99985.78
2022-08-20T05:26:03.659Z,99975.91
2022-08-20T05:26:35.370Z,99981.28
2022-08-20T05:27:06.707Z,99976.59
2022-08-20T05:27:38.054Z,99981.94
2022-08-20T05:28:16.879Z,99989.13
2022-08-20T05:28:57.737Z,99978.59
2022-08-20T05:29:30.641Z,99982.09
2022-08-20T05:30:04.883Z,99982.41
2022-08-20T05:30:36.867Z,99978.91
2022-08-20T05:31:08.730Z,99984.78
2022-08-20T05:31:40.057Z,99979.59
2022-08-20T05:32:11.391Z,99977.91
2022-08-20T05:32:44.651Z,99974.22
2022-08-20T05:33:16.589Z,99970.88
2022-08-20T05:33:47.966Z,99970.03
2022-08-20T05:34:19.313Z,99973.41
2022-08-20T05:34:50.648Z,99975.91
2022-08-20T05:35:22.010Z,99976.75
2022-08-20T05:35:53.377Z,99969.69
2022-08-20T05:36:24.719Z,99975.91
2022-08-20T05:36:56.090Z,99966.88
2022-08-20T05:37:27.696Z,99963.50
2022-08-20T05:38:03.571Z,99969.03
2022-08-20T05:38:35.557Z,99972.53
2022-08-20T05:39:07.005Z,99969.69
2022-08-20T05:39:38.624Z,99967.69
2022-08-20T05:40:10.953Z,99970.56
2022-08-20T05:40:42.370Z,99970.56
2022-08-20T05:41:13.754Z,99968.03
2022-08-20T05:41:59.888Z,99972.22
2022-08-20T05:42:31.290Z,99968.03
2022-08-20T05:43:02.709Z,99975.91
2022-08-20T05:43:34.304Z,99967.03
2022-08-20T05:44:06.246Z,99977.56
2022-08-20T05:44:38.037Z,99972.38
2022-08-20T05:45:11.271Z,99977.56
2022-08-20T05:45:42.898Z,99971.22
2022-08-20T05:46:14.236Z,99969.69
2022-08-20T05:46:45.985Z,99971.38
2022-08-20T05:47:17.377Z,99971.72
2022-08-20T05:47:53.399Z,99973.41
2022-08-20T05:48:28.093Z,99973.25
2022-08-20T05:49:00.135Z,99969.84
2022-08-20T05:49:31.928Z,99972.53
2022-08-20T05:50:04.366Z,99973.25
2022-08-20T05:50:35.783Z,99975.22
2022-08-20T05:51:07.155Z,99971.38
2022-08-20T05:51:38.509Z,99968.03
2022-08-20T05:52:09.882Z,99973.16
2022-08-20T05:52:41.335Z,99968.34
2022-08-20T05:53:12.688Z,99976.91
2022-08-20T05:53:44.038Z,99971.72
2022-08-20T05:54:15.471Z,99967.19
2022-08-20T05:54:46.865Z,99972.22
2022-08-20T05:55:18.255Z,99975.06
2022-08-20T05:55:49.599Z,99970.56
2022-08-20T05:56:21.642Z,99970.56
2022-08-20T05:56:58.372Z,99971.72
2022-08-20T05:57:29.731Z,99976.06
2022-08-20T05:58:01.473Z,99975.06
2022-08-20T05:58:32.867Z,99967.03
2022-08-20T05:59:04.457Z,99980.41
2022-08-20T05:59:35.858Z,99968.88
2022-08-20T06:00:08.421Z,99977.91
2022-08-20T06:00:39.743Z,99976.25
2022-08-20T06:01:11.169Z,99971.56
2022-08-20T06:01:42.688Z,99972.53
2022-08-20T06:02:14.154Z,99969.84
2022-08-20T06:02:45.530Z,99971.38
2022-08-20T06:03:16.882Z,99972.06
2022-08-20T06:03:48.299Z,99968.56
2022-08-20T06:04:19.692Z,99970.22
2022-08-20T06:04:56.305Z,99973.91
2022-08-20T06:05:27.822Z,99969.53
2022-08-20T06:05:59.139Z,99962.69
2022-08-20T06:06:39.163Z,99973.91
2022-08-20T06:07:17.825Z,99970.72
2022-08-20T06:07:49.261Z,99969.84
2022-08-20T06:08:20.657Z,99973.25
2022-08-20T06:08:52.030Z,99972.88
2022-08-20T06:09:30.906Z,99973.06
2022-08-20T06:10:03.757Z,99972.88
2022-08-20T06:10:35.219Z,99975.72
2022-08-20T06:11:06.685Z,99976.91
2022-08-20T06:11:38.093Z,99970.56
2022-08-20T06:12:09.449Z,99972.53
2022-08-20T06:12:40.976Z,99971.38
2022-08-20T06:13:13.997Z,99974.75
2022-08-20T06:13:45.571Z,99974.06
2022-08-20T06:14:17.030Z,99975.06
2022-08-20T06:14:48.411Z,99972.38
2022-08-20T06:15:19.901Z,99980.56
2022-08-20T06:15:51.265Z,99973.72
2022-08-20T06:16:22.593Z,99972.19
2022-08-20T06:17:07.469Z,99970.34
2022-08-20T06:17:39.347Z,99975.91
2022-08-20T06:18:27.977Z,99966.88
2022-08-20T06:19:02.118Z,99979.94
2022-08-20T06:19:34.680Z,99979.28
2022-08-20T06:20:06.983Z,99969.53
2022-08-20T06:20:38.672Z,99976.44
2022-08-20T06:21:10.096Z,99967.53
2022-08-20T06:21:41.456Z,99979.28
2022-08-20T06:22:19.562Z,99969.53
2022-08-20T06:22:57.183Z,99976.25
2022-08-20T06:23:56.513Z,99977.75
2022-08-20T06:24:19.959Z,99971.38
2022-08-20T06:24:51.485Z,99978.25
2022-08-20T06:25:23.035Z,99979.59
2022-08-20T06:25:54.433Z,99975.06
2022-08-20T06:26:29.868Z,99980.94